createdAt,value
2018-11-04T00:01:10.475Z,1.68
2018-11-04T00:03:39.216Z,1.73
2018-11-04T00:06:10.470Z,1.68
2018-11-04T00:08:43.012Z,1.54
2018-11-04T00:11:13.511Z,1.48
2018-11-04T00:13:41.919Z,1.42
2018-11-04T00:16:10.356Z,1.40
2018-11-04T00:18:38.767Z,1.36
2018-11-04T00:21:07.214Z,1.31
2018-11-04T00:23:35.588Z,1.33
2018-11-04T00:26:04.114Z,1.37
2018-11-04T00:28:32.554Z,1.41
2018-11-04T00:31:01.045Z,1.41
2018-11-04T00:33:29.460Z,1.45
2018-11-04T00:35:57.903Z,1.49
2018-11-04T00:38:26.290Z,1.53
2018-11-04T00:40:54.745Z,1.56
2018-11-04T00:43:23.195Z,1.57
2018-11-04T00:45:51.583Z,1.58
2018-11-04T00:48:20.076Z,1.58
2018-11-04T00:50:48.534Z,1.56
2018-11-04T00:53:16.952Z,1.58
2018-11-04T00:55:48.137Z,1.49
2018-11-04T00:58:16.586Z,1.38
2018-11-04T01:00:45.103Z,1.32
2018-11-04T01:03:13.491Z,1.24
2018-11-04T01:05:41.867Z,1.16
2018-11-04T01:08:10.313Z,1.17
2018-11-04T01:10:38.707Z,1.18
2018-11-04T01:13:07.136Z,1.20
2018-11-04T01:15:35.524Z,1.24
2018-11-04T01:18:04.015Z,1.24
2018-11-04T01:20:32.416Z,1.26
2018-11-04T01:23:00.835Z,1.24
2018-11-04T01:25:29.749Z,1.25
2018-11-04T01:27:59.146Z,1.31
2018-11-04T01:30:27.603Z,1.29
2018-11-04T01:32:55.964Z,1.22
2018-11-04T01:35:24.423Z,1.18
2018-11-04T01:37:52.813Z,1.20
2018-11-04T01:40:21.213Z,1.22
2018-11-04T01:42:50.545Z,1.21
2018-11-04T01:45:19.596Z,1.15
2018-11-04T01:47:48.827Z,1.12
2018-11-04T01:50:17.221Z,1.08
2018-11-04T01:52:46.202Z,1.09
2018-11-04T01:55:18.040Z,1.11
2018-11-04T01:57:47.393Z,1.12
2018-11-04T02:00:16.937Z,1.15
2018-11-04T02:02:46.015Z,1.19
2018-11-04T02:05:14.774Z,1.21
2018-11-04T02:07:43.205Z,1.23
2018-11-04T02:10:12.983Z,1.21
2018-11-04T02:12:41.422Z,1.20
2018-11-04T02:15:11.376Z,1.24
2018-11-04T02:17:39.875Z,1.21
2018-11-04T02:20:10.086Z,1.20
2018-11-04T02:22:38.569Z,1.18
2018-11-04T02:25:07.892Z,1.16
2018-11-04T02:27:36.344Z,1.18
2018-11-04T02:30:05.198Z,1.17
2018-11-04T02:32:33.594Z,1.17
2018-11-04T02:35:02.054Z,1.19
2018-11-04T02:37:30.504Z,0.76
2018-11-04T02:39:58.954Z,1.20
2018-11-04T02:42:27.392Z,1.22
2018-11-04T02:44:55.844Z,1.20
2018-11-04T02:47:24.280Z,1.16
2018-11-04T02:49:52.675Z,1.16
2018-11-04T02:52:21.210Z,1.13
2018-11-04T02:54:49.620Z,1.17
2018-11-04T02:57:18.004Z,1.20
2018-11-04T02:59:46.428Z,1.18
2018-11-04T03:02:14.844Z,1.15
2018-11-04T03:04:43.271Z,1.16
2018-11-04T03:07:11.710Z,1.13
2018-11-04T03:09:40.127Z,1.09
2018-11-04T03:12:08.568Z,1.07
2018-11-04T03:14:36.962Z,0.99
2018-11-04T03:17:05.556Z,0.96
2018-11-04T03:19:33.923Z,0.98
2018-11-04T03:22:02.311Z,0.98
2018-11-04T03:24:30.842Z,0.98
2018-11-04T03:26:59.211Z,0.90
2018-11-04T03:29:28.219Z,0.90
2018-11-04T03:31:56.595Z,0.95
2018-11-04T03:34:25.343Z,0.99
2018-11-04T03:36:54.755Z,1.04
2018-11-04T03:39:23.218Z,1.07
2018-11-04T03:41:52.870Z,1.14
2018-11-04T03:44:21.388Z,1.18
2018-11-04T03:46:50.643Z,1.19
2018-11-04T03:49:20.473Z,1.16
2018-11-04T03:51:48.870Z,1.03
2018-11-04T03:54:17.896Z,1.02
2018-11-04T03:56:46.586Z,1.01
2018-11-04T03:59:15.000Z,1.01
2018-11-04T04:01:43.425Z,1.05
2018-11-04T04:04:11.821Z,1.03
2018-11-04T04:06:40.243Z,1.06
2018-11-04T04:09:09.727Z,1.04
2018-11-04T04:11:39.183Z,1.06
2018-11-04T04:14:08.678Z,1.09
2018-11-04T04:16:37.614Z,1.16
2018-11-04T04:19:06.402Z,1.17
2018-11-04T04:21:34.807Z,1.20
2018-11-04T04:24:03.223Z,1.26
2018-11-04T04:26:31.609Z,1.28
2018-11-04T04:29:00.025Z,1.33
2018-11-04T04:31:28.579Z,1.34
2018-11-04T04:33:57.015Z,1.37
2018-11-04T04:36:25.424Z,1.43
2018-11-04T04:38:53.854Z,1.49
2018-11-04T04:41:22.292Z,1.57
2018-11-04T04:43:50.740Z,1.61
2018-11-04T04:46:19.160Z,1.66
2018-11-04T04:48:47.606Z,1.68
2018-11-04T04:51:16.013Z,1.59
2018-11-04T04:53:44.430Z,1.60
2018-11-04T04:56:12.879Z,1.61
2018-11-04T04:58:41.294Z,1.60
2018-11-04T05:01:09.673Z,1.66
2018-11-04T05:03:38.058Z,1.69
2018-11-04T05:06:06.492Z,1.73
2018-11-04T05:08:34.875Z,1.77
2018-11-04T05:11:03.336Z,1.78
2018-11-04T05:13:31.741Z,1.85
2018-11-04T05:16:00.180Z,1.87
2018-11-04T05:18:28.593Z,1.93
2018-11-04T05:20:57.014Z,1.97
2018-11-04T05:23:25.415Z,2.04
2018-11-04T05:25:53.836Z,2.08
2018-11-04T05:28:22.235Z,2.09
2018-11-04T05:30:50.633Z,2.13
2018-11-04T05:33:19.086Z,2.14
2018-11-04T05:35:47.540Z,2.18
2018-11-04T05:38:15.972Z,2.19
2018-11-04T05:40:44.367Z,2.21
2018-11-04T05:43:12.847Z,2.23
2018-11-04T05:45:41.216Z,2.24
2018-11-04T05:48:09.654Z,2.24
2018-11-04T05:50:38.062Z,2.27
2018-11-04T05:53:06.493Z,2.27
2018-11-04T05:55:34.918Z,2.31
2018-11-04T05:58:03.326Z,2.35
2018-11-04T06:00:31.769Z,2.39
2018-11-04T06:03:00.177Z,2.42
2018-11-04T06:05:28.572Z,2.43
2018-11-04T06:07:56.977Z,2.45
2018-11-04T06:10:25.398Z,2.49
2018-11-04T06:12:53.825Z,2.51
2018-11-04T06:15:22.248Z,2.53
2018-11-04T06:17:50.645Z,2.56
2018-11-04T06:20:19.034Z,2.56
2018-11-04T06:22:47.420Z,2.59
2018-11-04T06:25:15.813Z,2.63
2018-11-04T06:27:44.241Z,2.65
2018-11-04T06:30:13.468Z,2.67
2018-11-04T06:32:42.734Z,2.69
2018-11-04T06:35:11.140Z,2.72
2018-11-04T06:37:39.606Z,2.76
2018-11-04T06:40:08.914Z,2.81
2018-11-04T06:42:37.393Z,2.81
2018-11-04T06:45:06.783Z,2.84
2018-11-04T06:47:35.208Z,2.86
2018-11-04T06:50:03.674Z,2.91
2018-11-04T06:52:32.145Z,2.95
2018-11-04T06:55:00.506Z,2.97
2018-11-04T06:57:28.942Z,2.99
2018-11-04T06:59:57.364Z,3.00
2018-11-04T07:02:25.838Z,3.01
2018-11-04T07:04:54.275Z,3.04
2018-11-04T07:07:22.678Z,3.06
2018-11-04T07:09:51.137Z,3.08
2018-11-04T07:12:19.579Z,3.10
2018-11-04T07:14:48.004Z,3.12
2018-11-04T07:17:16.403Z,3.15
2018-11-04T07:19:44.833Z,3.17
2018-11-04T07:22:13.285Z,3.22
2018-11-04T07:24:41.711Z,3.28
2018-11-04T07:27:10.125Z,3.32
2018-11-04T07:29:38.613Z,3.34
2018-11-04T07:32:07.132Z,3.36
2018-11-04T07:34:35.497Z,3.39
2018-11-04T07:37:04.036Z,3.43
2018-11-04T07:39:32.497Z,3.43
2018-11-04T07:42:00.908Z,3.47
2018-11-04T07:44:29.433Z,3.50
2018-11-04T07:46:58.701Z,3.53
2018-11-04T07:49:27.144Z,3.58
2018-11-04T07:51:55.576Z,3.61
2018-11-04T07:54:24.020Z,3.67
2018-11-04T07:56:52.548Z,3.70
2018-11-04T07:59:20.988Z,3.72
2018-11-04T08:01:49.482Z,3.76
2018-11-04T08:04:17.950Z,3.81
2018-11-04T08:06:46.354Z,3.88
2018-11-04T08:09:14.787Z,3.89
2018-11-04T08:11:43.208Z,3.93
2018-11-04T08:14:11.691Z,3.98
2018-11-04T08:16:40.084Z,3.99
2018-11-04T08:19:09.641Z,4.03
2018-11-04T08:21:38.455Z,4.06
2018-11-04T08:24:07.226Z,4.11
2018-11-04T08:26:36.125Z,4.12
2018-11-04T08:29:04.602Z,4.16
2018-11-04T08:31:33.080Z,4.20
2018-11-04T08:34:01.496Z,4.21
2018-11-04T08:36:29.973Z,4.23
2018-11-04T08:38:58.400Z,4.26
2018-11-04T08:41:26.873Z,4.28
2018-11-04T08:43:55.316Z,4.28
2018-11-04T08:46:23.791Z,4.37
2018-11-04T08:48:52.224Z,4.41
2018-11-04T08:51:20.672Z,4.45
2018-11-04T08:53:49.117Z,4.49
2018-11-04T08:56:17.576Z,4.56
2018-11-04T08:58:45.990Z,4.61
2018-11-04T09:01:14.448Z,4.66
2018-11-04T09:03:42.916Z,4.70
2018-11-04T09:06:11.341Z,4.75
2018-11-04T09:08:39.863Z,4.83
2018-11-04T09:11:08.262Z,4.89
2018-11-04T09:13:36.675Z,3.30
2018-11-04T09:16:05.201Z,5.01
2018-11-04T09:18:33.633Z,5.08
2018-11-04T09:21:02.087Z,5.22
2018-11-04T09:23:30.555Z,5.31
2018-11-04T09:25:59.024Z,5.41
2018-11-04T09:28:27.526Z,5.49
2018-11-04T09:30:56.000Z,5.52
2018-11-04T09:33:24.490Z,5.54
2018-11-04T09:35:53.117Z,5.53
2018-11-04T09:38:21.429Z,5.56
2018-11-04T09:40:49.906Z,5.64
2018-11-04T09:43:18.390Z,5.69
2018-11-04T09:45:46.945Z,5.74
2018-11-04T09:48:15.375Z,5.79
2018-11-04T09:50:43.827Z,5.82
2018-11-04T09:53:12.237Z,5.81
2018-11-04T09:55:41.290Z,5.81
2018-11-04T09:58:09.896Z,5.84
2018-11-04T10:00:38.360Z,5.89
2018-11-04T10:03:06.761Z,5.95
2018-11-04T10:05:35.217Z,6.10
2018-11-04T10:08:03.729Z,6.14
2018-11-04T10:10:32.189Z,6.22
2018-11-04T10:13:00.668Z,6.27
2018-11-04T10:15:29.084Z,6.36
2018-11-04T10:17:57.465Z,6.41
2018-11-04T10:20:26.233Z,6.49
2018-11-04T10:22:54.324Z,6.59
2018-11-04T10:25:22.781Z,6.65
2018-11-04T10:27:51.196Z,6.74
2018-11-04T10:30:19.693Z,6.76
2018-11-04T10:32:48.118Z,6.82
2018-11-04T10:35:16.563Z,6.88
2018-11-04T10:37:45.079Z,6.92
2018-11-04T10:40:13.960Z,6.97
2018-11-04T10:42:42.399Z,7.03
2018-11-04T10:45:11.714Z,7.11
2018-11-04T10:47:40.187Z,7.10
2018-11-04T10:50:10.291Z,7.19
2018-11-04T10:52:38.728Z,7.30
2018-11-04T10:55:07.956Z,7.39
2018-11-04T10:57:36.424Z,7.44
2018-11-04T11:00:05.937Z,7.45
2018-11-04T11:02:34.458Z,7.53
2018-11-04T11:05:02.915Z,7.66
2018-11-04T11:07:31.384Z,7.76
2018-11-04T11:09:59.866Z,7.79
2018-11-04T11:12:28.312Z,7.83
2018-11-04T11:14:56.744Z,7.92
2018-11-04T11:17:25.134Z,7.97
2018-11-04T11:19:53.560Z,7.96
2018-11-04T11:22:22.095Z,8.02
2018-11-04T11:24:50.485Z,8.02
2018-11-04T11:27:18.953Z,8.11
2018-11-04T11:29:47.419Z,8.18
2018-11-04T11:32:15.885Z,8.23
2018-11-04T11:34:44.321Z,8.31
2018-11-04T11:37:12.759Z,8.39
2018-11-04T11:39:41.177Z,8.44
2018-11-04T11:42:09.657Z,8.46
2018-11-04T11:44:38.114Z,8.42
2018-11-04T11:47:06.786Z,8.37
2018-11-04T11:49:35.267Z,8.51
2018-11-04T11:52:03.703Z,8.58
2018-11-04T11:54:32.125Z,8.62
2018-11-04T11:57:00.572Z,8.62
2018-11-04T11:59:29.102Z,8.66
2018-11-04T12:01:57.494Z,8.77
2018-11-04T12:04:25.869Z,8.83
2018-11-04T12:06:54.380Z,8.86
2018-11-04T12:09:22.863Z,8.87
2018-11-04T12:11:51.329Z,9.01
2018-11-04T12:14:19.770Z,9.10
2018-11-04T12:16:48.464Z,9.08
2018-11-04T12:19:16.966Z,9.20
2018-11-04T12:21:45.453Z,9.26
2018-11-04T12:24:13.926Z,9.23
2018-11-04T12:26:42.445Z,9.23
2018-11-04T12:29:10.947Z,9.29
2018-11-04T12:31:39.380Z,9.36
2018-11-04T12:34:07.814Z,9.30
2018-11-04T12:36:36.320Z,9.29
2018-11-04T12:39:05.777Z,9.37
2018-11-04T12:41:34.228Z,9.50
2018-11-04T12:44:02.726Z,9.51
2018-11-04T12:46:31.182Z,9.48
2018-11-04T12:48:59.691Z,9.45
2018-11-04T12:51:28.333Z,9.46
2018-11-04T12:53:56.726Z,9.52
2018-11-04T12:56:25.135Z,9.58
2018-11-04T12:58:53.652Z,9.52
2018-11-04T13:01:22.106Z,9.55
2018-11-04T13:03:50.605Z,9.55
2018-11-04T13:06:19.083Z,9.54
2018-11-04T13:08:47.600Z,9.60
2018-11-04T13:11:16.079Z,9.54
2018-11-04T13:13:44.594Z,9.52
2018-11-04T13:16:13.104Z,9.54
2018-11-04T13:18:41.921Z,9.56
2018-11-04T13:21:10.478Z,9.53
2018-11-04T13:23:38.877Z,9.60
2018-11-04T13:26:07.385Z,9.64
2018-11-04T13:28:35.784Z,9.72
2018-11-04T13:31:04.305Z,9.82
2018-11-04T13:33:32.800Z,9.87
2018-11-04T13:36:01.426Z,9.86
2018-11-04T13:38:30.050Z,9.91
2018-11-04T13:41:00.292Z,9.96
2018-11-04T13:43:29.677Z,9.98
2018-11-04T13:45:58.171Z,9.97
2018-11-04T13:48:26.615Z,10.02
2018-11-04T13:50:55.067Z,10.06
2018-11-04T13:53:23.509Z,10.07
2018-11-04T13:55:52.004Z,10.11
2018-11-04T13:58:21.641Z,10.15
2018-11-04T14:00:50.132Z,10.21
2018-11-04T14:03:18.626Z,10.22
2018-11-04T14:05:47.153Z,10.27
2018-11-04T14:08:15.615Z,10.31
2018-11-04T14:10:44.071Z,10.37
2018-11-04T14:13:12.598Z,10.40
2018-11-04T14:15:42.290Z,10.37
2018-11-04T14:18:10.757Z,10.40
2018-11-04T14:20:40.948Z,10.36
2018-11-04T14:23:09.393Z,10.38
2018-11-04T14:25:37.855Z,10.43
2018-11-04T14:28:06.325Z,10.41
2018-11-04T14:30:34.764Z,10.43
2018-11-04T14:33:03.229Z,10.41
2018-11-04T14:35:31.670Z,10.35
2018-11-04T14:38:00.206Z,10.11
2018-11-04T14:40:28.714Z,10.31
2018-11-04T14:42:57.214Z,10.29
2018-11-04T14:45:25.698Z,10.26
2018-11-04T14:47:54.319Z,10.24
2018-11-04T14:50:22.790Z,10.19
2018-11-04T14:52:51.230Z,10.15
2018-11-04T14:55:19.658Z,10.18
2018-11-04T14:57:48.140Z,10.14
2018-11-04T15:00:17.056Z,10.13
2018-11-04T15:02:45.507Z,10.11
2018-11-04T15:05:14.013Z,10.08
2018-11-04T15:07:42.487Z,10.03
2018-11-04T15:10:12.832Z,9.93
2018-11-04T15:12:41.406Z,9.94
2018-11-04T15:15:12.122Z,9.89
2018-11-04T15:17:41.176Z,9.89
2018-11-04T15:20:10.616Z,9.86
2018-11-04T15:22:42.926Z,9.80
2018-11-04T15:25:11.347Z,9.74
2018-11-04T15:27:39.865Z,9.72
2018-11-04T15:30:09.358Z,9.72
2018-11-04T15:32:37.890Z,9.77
2018-11-04T15:35:06.464Z,9.79
2018-11-04T15:37:34.908Z,9.76
2018-11-04T15:40:03.563Z,9.85
2018-11-04T15:42:32.133Z,9.81
2018-11-04T15:45:00.576Z,9.75
2018-11-04T15:47:29.086Z,9.75
2018-11-04T15:49:57.509Z,9.76
2018-11-04T15:52:25.975Z,9.76
2018-11-04T15:54:54.489Z,9.72
2018-11-04T15:57:22.961Z,9.70
2018-11-04T15:59:51.416Z,9.68
2018-11-04T16:02:19.937Z,9.63
2018-11-04T16:04:48.376Z,9.57
2018-11-04T16:07:16.893Z,9.53
2018-11-04T16:09:45.308Z,9.47
2018-11-04T16:12:13.781Z,9.49
2018-11-04T16:14:42.185Z,9.50
2018-11-04T16:17:10.608Z,9.47
2018-11-04T16:19:39.013Z,9.46
2018-11-04T16:22:07.467Z,9.47
2018-11-04T16:24:35.907Z,9.49
2018-11-04T16:27:04.393Z,9.49
2018-11-04T16:29:32.827Z,9.49
2018-11-04T16:32:01.437Z,9.50
2018-11-04T16:34:29.780Z,9.53
2018-11-04T16:36:58.247Z,9.54
2018-11-04T16:39:26.741Z,9.52
2018-11-04T16:41:55.243Z,9.44
2018-11-04T16:44:23.894Z,9.39
2018-11-04T16:46:52.207Z,9.40
2018-11-04T16:49:20.655Z,9.38
2018-11-04T16:51:49.118Z,9.35
2018-11-04T16:54:17.598Z,9.28
2018-11-04T16:56:46.023Z,9.24
2018-11-04T16:59:14.472Z,9.19
2018-11-04T17:01:42.918Z,9.17
2018-11-04T17:04:11.409Z,9.14
2018-11-04T17:06:39.866Z,9.10
2018-11-04T17:09:10.924Z,9.05
2018-11-04T17:11:39.394Z,9.03
2018-11-04T17:14:08.116Z,8.99
2018-11-04T17:16:38.012Z,8.96
2018-11-04T17:19:07.085Z,8.92
2018-11-04T17:21:37.418Z,8.86
2018-11-04T17:24:05.903Z,8.85
2018-11-04T17:26:34.377Z,8.83
2018-11-04T17:29:02.809Z,8.81
2018-11-04T17:31:31.260Z,8.80
2018-11-04T17:33:59.715Z,8.77
2018-11-04T17:36:28.280Z,8.77
2018-11-04T17:38:56.657Z,8.78
2018-11-04T17:41:25.182Z,8.76
2018-11-04T17:43:53.718Z,8.76
2018-11-04T17:46:22.136Z,8.70
2018-11-04T17:48:50.659Z,8.70
2018-11-04T17:51:20.150Z,8.71
2018-11-04T17:53:48.593Z,8.72
2018-11-04T17:56:17.028Z,8.71
2018-11-04T17:58:45.504Z,8.71
2018-11-04T18:01:13.975Z,8.66
2018-11-04T18:03:43.137Z,8.64
2018-11-04T18:06:11.638Z,8.63
2018-11-04T18:08:40.305Z,8.64
2018-11-04T18:11:08.775Z,8.65
2018-11-04T18:13:37.229Z,8.62
2018-11-04T18:16:05.785Z,8.62
2018-11-04T18:18:34.308Z,8.58
2018-11-04T18:21:02.810Z,8.55
2018-11-04T18:23:31.313Z,8.54
2018-11-04T18:25:59.741Z,8.46
2018-11-04T18:28:28.157Z,8.50
2018-11-04T18:30:56.701Z,8.49
2018-11-04T18:33:25.167Z,8.44
2018-11-04T18:35:53.692Z,8.38
2018-11-04T18:38:22.103Z,8.35
2018-11-04T18:40:50.596Z,8.23
2018-11-04T18:43:19.040Z,8.27
2018-11-04T18:45:47.514Z,8.23
2018-11-04T18:48:15.963Z,8.21
2018-11-04T18:50:44.380Z,8.20
2018-11-04T18:53:12.833Z,8.20
2018-11-04T18:55:41.263Z,8.19
2018-11-04T18:58:09.715Z,8.17
2018-11-04T19:00:38.135Z,8.20
2018-11-04T19:03:06.632Z,8.21
2018-11-04T19:05:35.257Z,8.18
2018-11-04T19:08:04.867Z,8.17
2018-11-04T19:10:33.354Z,8.14
2018-11-04T19:13:01.850Z,8.10
2018-11-04T19:15:30.880Z,8.07
2018-11-04T19:17:59.356Z,8.05
2018-11-04T19:20:27.821Z,8.02
2018-11-04T19:22:56.307Z,7.98
2018-11-04T19:25:24.739Z,7.97
2018-11-04T19:27:53.222Z,7.94
2018-11-04T19:30:21.666Z,7.91
2018-11-04T19:32:51.209Z,7.89
2018-11-04T19:35:19.668Z,7.86
2018-11-04T19:37:48.156Z,7.82
2018-11-04T19:40:17.412Z,7.79
2018-11-04T19:42:46.010Z,7.76
2018-11-04T19:45:14.415Z,7.72
2018-11-04T19:47:42.898Z,7.70
2018-11-04T19:50:12.682Z,7.67
2018-11-04T19:52:41.582Z,7.65
2018-11-04T19:55:10.703Z,7.61
2018-11-04T19:57:39.125Z,7.60
2018-11-04T20:00:13.196Z,7.56
2018-11-04T20:02:41.737Z,7.56
2018-11-04T20:05:11.991Z,7.54
2018-11-04T20:07:40.444Z,7.52
2018-11-04T20:10:11.598Z,7.51
2018-11-04T20:12:45.274Z,7.47
2018-11-04T20:15:13.743Z,7.47
2018-11-04T20:17:42.248Z,7.39
2018-11-04T20:20:14.481Z,7.33
2018-11-04T20:22:42.984Z,7.24
2018-11-04T20:25:16.558Z,7.18
2018-11-04T20:27:45.005Z,7.11
2018-11-04T20:30:14.155Z,7.09
2018-11-04T20:32:47.844Z,7.06
2018-11-04T20:35:16.772Z,7.10
2018-11-04T20:37:45.346Z,7.09
2018-11-04T20:40:19.088Z,7.08
2018-11-04T20:42:47.574Z,7.02
2018-11-04T20:45:16.059Z,7.02
2018-11-04T20:49:55.343Z,7.03
2018-11-04T20:52:23.758Z,7.01
2018-11-04T20:54:52.282Z,6.94
2018-11-04T20:57:26.017Z,6.93
2018-11-04T20:59:54.459Z,6.93
2018-11-04T21:02:23.091Z,6.91
2018-11-04T21:04:51.475Z,6.88
2018-11-04T21:07:19.927Z,6.83
2018-11-04T21:09:48.432Z,6.78
2018-11-04T21:12:16.864Z,6.64
2018-11-04T21:14:45.301Z,6.51
2018-11-04T21:17:13.802Z,6.43
2018-11-04T21:19:42.334Z,6.40
2018-11-04T21:22:11.648Z,6.31
2018-11-04T21:24:40.404Z,6.25
2018-11-04T21:27:08.940Z,6.16
2018-11-04T21:29:38.033Z,6.24
2018-11-04T21:32:06.770Z,6.27
2018-11-04T21:34:35.252Z,6.29
2018-11-04T21:37:04.461Z,6.27
2018-11-04T21:39:32.864Z,6.25
2018-11-04T21:42:01.461Z,6.18
2018-11-04T21:44:29.979Z,6.08
2018-11-04T21:46:58.456Z,6.06
2018-11-04T21:49:26.969Z,6.07
2018-11-04T21:51:55.368Z,6.12
2018-11-04T21:54:23.814Z,6.08
2018-11-04T21:56:52.304Z,6.07
2018-11-04T21:59:20.767Z,6.07
2018-11-04T22:01:49.703Z,5.94
2018-11-04T22:04:18.275Z,5.88
2018-11-04T22:06:46.645Z,5.84
2018-11-04T22:09:15.095Z,5.92
2018-11-04T22:11:43.549Z,5.92
2018-11-04T22:14:11.948Z,5.89
2018-11-04T22:16:40.513Z,5.81
2018-11-04T22:19:08.974Z,5.79
2018-11-04T22:21:37.445Z,5.80
2018-11-04T22:24:06.014Z,5.70
2018-11-04T22:26:34.439Z,5.65
2018-11-04T22:29:02.874Z,5.65
2018-11-04T22:31:31.287Z,5.69
2018-11-04T22:33:59.717Z,5.65
2018-11-04T22:36:28.137Z,5.58
2018-11-04T22:38:56.589Z,5.56
2018-11-04T22:41:25.009Z,5.50
2018-11-04T22:43:53.482Z,5.52
2018-11-04T22:46:21.936Z,5.61
2018-11-04T22:48:50.418Z,5.67
2018-11-04T22:51:18.830Z,5.77
2018-11-04T22:53:47.325Z,5.79
2018-11-04T22:56:15.768Z,5.87
2018-11-04T22:58:44.187Z,5.91
2018-11-04T23:01:12.561Z,5.89
2018-11-04T23:03:41.040Z,5.84
2018-11-04T23:06:09.544Z,5.77
2018-11-04T23:08:37.962Z,5.66
2018-11-04T23:11:06.410Z,5.60
2018-11-04T23:13:34.852Z,5.47
2018-11-04T23:16:03.288Z,5.43
2018-11-04T23:18:31.761Z,5.48
2018-11-04T23:21:00.176Z,5.50
2018-11-04T23:23:28.633Z,5.53
2018-11-04T23:25:57.041Z,5.50
2018-11-04T23:28:25.469Z,5.42
2018-11-04T23:30:54.026Z,5.43
2018-11-04T23:33:22.484Z,5.45
2018-11-04T23:35:50.900Z,5.48
2018-11-04T23:38:19.288Z,5.45
2018-11-04T23:40:47.697Z,5.44
2018-11-04T23:57:39.145Z,5.51
